sensor_id;sensor_type;location;lat;lon;timestamp;P1;durP1;ratioP1;P2;durP2;ratioP2
30307;SDS011;17114;52.314;8.910;2023-09-18T00:01:21;8.90;;;6.93;;
30307;SDS011;17114;52.314;8.910;2023-09-18T00:03:48;10.45;;;6.90;;
30307;SDS011;17114;52.314;8.910;2023-09-18T00:06:15;9.07;;;7.03;;
30307;SDS011;17114;52.314;8.910;2023-09-18T00:08:42;9.55;;;6.57;;
30307;SDS011;17114;52.314;8.910;2023-09-18T00:11:09;7.78;;;6.07;;
30307;SDS011;17114;52.314;8.910;2023-09-18T00:13:38;7.65;;;6.25;;
30307;SDS011;17114;52.314;8.910;2023-09-18T00:16:04;11.70;;;6.63;;
30307;SDS011;17114;52.314;8.910;2023-09-18T00:18:31;9.82;;;6.68;;
30307;SDS011;17114;52.314;8.910;2023-09-18T00:20:59;10.25;;;6.88;;
30307;SDS011;17114;52.314;8.910;2023-09-18T00:23:26;7.30;;;5.65;;
30307;SDS011;17114;52.314;8.910;2023-09-18T00:25:53;9.52;;;6.20;;
30307;SDS011;17114;52.314;8.910;2023-09-18T00:28:20;9.90;;;6.20;;
30307;SDS011;17114;52.314;8.910;2023-09-18T00:30:47;10.57;;;5.70;;
30307;SDS011;17114;52.314;8.910;2023-09-18T00:33:16;9.00;;;6.60;;
30307;SDS011;17114;52.314;8.910;2023-09-18T00:35:46;9.15;;;5.80;;
30307;SDS011;17114;52.314;8.910;2023-09-18T00:38:16;12.63;;;7.05;;
30307;SDS011;17114;52.314;8.910;2023-09-18T00:40:44;9.65;;;6.65;;
30307;SDS011;17114;52.314;8.910;2023-09-18T00:43:11;9.07;;;6.32;;
30307;SDS011;17114;52.314;8.910;2023-09-18T00:45:39;7.95;;;6.00;;
30307;SDS011;17114;52.314;8.910;2023-09-18T00:48:08;9.15;;;6.38;;
30307;SDS011;17114;52.314;8.910;2023-09-18T00:50:36;10.95;;;7.28;;
30307;SDS011;17114;52.314;8.910;2023-09-18T00:53:04;7.20;;;6.10;;
30307;SDS011;17114;52.314;8.910;2023-09-18T00:55:33;13.15;;;7.45;;
30307;SDS011;17114;52.314;8.910;2023-09-18T00:58:02;8.73;;;6.18;;
30307;SDS011;17114;52.314;8.910;2023-09-18T01:00:30;8.40;;;6.18;;
30307;SDS011;17114;52.314;8.910;2023-09-18T01:02:57;10.52;;;7.32;;
30307;SDS011;17114;52.314;8.910;2023-09-18T01:05:24;8.07;;;6.55;;
30307;SDS011;17114;52.314;8.910;2023-09-18T01:07:51;9.20;;;6.90;;
30307;SDS011;17114;52.314;8.910;2023-09-18T01:10:18;9.52;;;6.97;;
30307;SDS011;17114;52.314;8.910;2023-09-18T01:12:53;9.60;;;6.63;;
30307;SDS011;17114;52.314;8.910;2023-09-18T01:15:39;9.45;;;6.55;;
30307;SDS011;17114;52.314;8.910;2023-09-18T01:18:21;9.35;;;6.20;;
30307;SDS011;17114;52.314;8.910;2023-09-18T01:20:48;12.07;;;6.60;;
30307;SDS011;17114;52.314;8.910;2023-09-18T01:23:15;12.20;;;7.38;;
30307;SDS011;17114;52.314;8.910;2023-09-18T01:25:42;13.27;;;7.32;;
30307;SDS011;17114;52.314;8.910;2023-09-18T01:28:09;14.60;;;7.80;;
30307;SDS011;17114;52.314;8.910;2023-09-18T01:30:36;8.95;;;7.05;;
30307;SDS011;17114;52.314;8.910;2023-09-18T01:33:04;10.35;;;7.30;;
30307;SDS011;17114;52.314;8.910;2023-09-18T01:35:32;14.10;;;7.80;;
30307;SDS011;17114;52.314;8.910;2023-09-18T01:38:00;9.95;;;7.40;;
30307;SDS011;17114;52.314;8.910;2023-09-18T01:40:29;12.73;;;7.70;;
30307;SDS011;17114;52.314;8.910;2023-09-18T01:42:56;14.73;;;7.50;;
30307;SDS011;17114;52.314;8.910;2023-09-18T01:45:23;10.35;;;7.50;;
30307;SDS011;17114;52.314;8.910;2023-09-18T01:47:50;13.30;;;7.22;;
30307;SDS011;17114;52.314;8.910;2023-09-18T01:50:17;9.63;;;7.13;;
30307;SDS011;17114;52.314;8.910;2023-09-18T01:52:44;11.73;;;7.20;;
30307;SDS011;17114;52.314;8.910;2023-09-18T01:55:12;11.13;;;7.38;;
30307;SDS011;17114;52.314;8.910;2023-09-18T01:57:39;11.82;;;7.05;;
30307;SDS011;17114;52.314;8.910;2023-09-18T02:00:08;15.45;;;7.35;;
30307;SDS011;17114;52.314;8.910;2023-09-18T02:02:36;11.82;;;7.00;;
30307;SDS011;17114;52.314;8.910;2023-09-18T02:05:19;10.73;;;6.57;;
30307;SDS011;17114;52.314;8.910;2023-09-18T02:07:46;12.90;;;7.55;;
30307;SDS011;17114;52.314;8.910;2023-09-18T02:10:13;11.35;;;7.00;;
30307;SDS011;17114;52.314;8.910;2023-09-18T02:12:40;9.02;;;6.00;;
30307;SDS011;17114;52.314;8.910;2023-09-18T02:15:07;13.73;;;7.47;;
30307;SDS011;17114;52.314;8.910;2023-09-18T02:17:36;12.10;;;6.90;;
30307;SDS011;17114;52.314;8.910;2023-09-18T02:20:03;10.05;;;7.47;;
30307;SDS011;17114;52.314;8.910;2023-09-18T02:22:38;10.82;;;6.85;;
30307;SDS011;17114;52.314;8.910;2023-09-18T02:25:06;9.93;;;6.45;;
30307;SDS011;17114;52.314;8.910;2023-09-18T02:27:33;9.30;;;6.90;;
30307;SDS011;17114;52.314;8.910;2023-09-18T02:30:00;11.30;;;7.22;;
30307;SDS011;17114;52.314;8.910;2023-09-18T02:32:27;10.27;;;7.00;;
30307;SDS011;17114;52.314;8.910;2023-09-18T02:34:54;10.07;;;7.28;;
30307;SDS011;17114;52.314;8.910;2023-09-18T02:37:21;9.70;;;6.55;;
30307;SDS011;17114;52.314;8.910;2023-09-18T02:39:48;10.70;;;6.80;;
30307;SDS011;17114;52.314;8.910;2023-09-18T02:42:15;11.15;;;6.90;;
30307;SDS011;17114;52.314;8.910;2023-09-18T02:44:43;12.38;;;7.25;;
30307;SDS011;17114;52.314;8.910;2023-09-18T02:47:13;10.52;;;6.88;;
30307;SDS011;17114;52.314;8.910;2023-09-18T02:49:40;8.95;;;6.05;;
30307;SDS011;17114;52.314;8.910;2023-09-18T02:52:07;10.52;;;6.25;;
30307;SDS011;17114;52.314;8.910;2023-09-18T02:54:34;9.35;;;6.30;;
30307;SDS011;17114;52.314;8.910;2023-09-18T02:57:01;9.25;;;6.47;;
30307;SDS011;17114;52.314;8.910;2023-09-18T02:59:28;11.75;;;7.05;;
30307;SDS011;17114;52.314;8.910;2023-09-18T03:01:55;9.80;;;7.10;;
30307;SDS011;17114;52.314;8.910;2023-09-18T03:04:22;11.50;;;6.95;;
30307;SDS011;17114;52.314;8.910;2023-09-18T03:06:49;14.05;;;7.07;;
30307;SDS011;17114;52.314;8.910;2023-09-18T03:09:15;12.15;;;7.57;;
30307;SDS011;17114;52.314;8.910;2023-09-18T03:11:43;10.13;;;7.22;;
30307;SDS011;17114;52.314;8.910;2023-09-18T03:14:10;9.68;;;6.70;;
30307;SDS011;17114;52.314;8.910;2023-09-18T03:16:37;9.15;;;6.13;;
30307;SDS011;17114;52.314;8.910;2023-09-18T03:19:10;16.13;;;6.57;;
30307;SDS011;17114;52.314;8.910;2023-09-18T03:21:37;13.68;;;6.53;;
30307;SDS011;17114;52.314;8.910;2023-09-18T03:24:04;13.82;;;6.63;;
30307;SDS011;17114;52.314;8.910;2023-09-18T03:26:32;10.10;;;5.95;;
30307;SDS011;17114;52.314;8.910;2023-09-18T03:28:59;9.20;;;6.47;;
30307;SDS011;17114;52.314;8.910;2023-09-18T03:31:26;12.90;;;6.88;;
30307;SDS011;17114;52.314;8.910;2023-09-18T03:33:53;10.93;;;6.32;;
30307;SDS011;17114;52.314;8.910;2023-09-18T03:36:23;8.25;;;6.35;;
30307;SDS011;17114;52.314;8.910;2023-09-18T03:38:50;12.40;;;7.20;;
30307;SDS011;17114;52.314;8.910;2023-09-18T03:41:17;10.63;;;6.60;;
30307;SDS011;17114;52.314;8.910;2023-09-18T03:43:44;9.32;;;6.63;;
30307;SDS011;17114;52.314;8.910;2023-09-18T03:46:11;11.23;;;6.28;;
30307;SDS011;17114;52.314;8.910;2023-09-18T03:48:38;11.10;;;6.30;;
30307;SDS011;17114;52.314;8.910;2023-09-18T03:51:05;11.95;;;6.30;;
30307;SDS011;17114;52.314;8.910;2023-09-18T03:53:33;10.75;;;6.15;;
30307;SDS011;17114;52.314;8.910;2023-09-18T03:56:00;9.77;;;6.45;;
30307;SDS011;17114;52.314;8.910;2023-09-18T03:58:27;9.98;;;6.22;;
30307;SDS011;17114;52.314;8.910;2023-09-18T04:00:54;13.18;;;6.57;;
30307;SDS011;17114;52.314;8.910;2023-09-18T04:03:22;11.35;;;6.57;;
30307;SDS011;17114;52.314;8.910;2023-09-18T04:05:49;8.32;;;6.30;;
30307;SDS011;17114;52.314;8.910;2023-09-18T04:08:16;8.70;;;6.00;;
30307;SDS011;17114;52.314;8.910;2023-09-18T04:10:43;10.60;;;6.07;;
30307;SDS011;17114;52.314;8.910;2023-09-18T04:13:11;9.50;;;5.90;;
30307;SDS011;17114;52.314;8.910;2023-09-18T04:15:38;7.88;;;5.90;;
30307;SDS011;17114;52.314;8.910;2023-09-18T04:18:05;11.52;;;6.00;;
30307;SDS011;17114;52.314;8.910;2023-09-18T04:20:32;11.73;;;6.13;;
30307;SDS011;17114;52.314;8.910;2023-09-18T04:23:18;9.15;;;6.20;;
30307;SDS011;17114;52.314;8.910;2023-09-18T04:25:50;10.27;;;5.68;;
30307;SDS011;17114;52.314;8.910;2023-09-18T04:28:18;8.20;;;6.22;;
30307;SDS011;17114;52.314;8.910;2023-09-18T04:30:46;9.63;;;6.35;;
30307;SDS011;17114;52.314;8.910;2023-09-18T04:33:14;11.30;;;6.10;;
30307;SDS011;17114;52.314;8.910;2023-09-18T04:35:41;8.18;;;5.95;;
30307;SDS011;17114;52.314;8.910;2023-09-18T04:38:09;13.13;;;6.53;;
30307;SDS011;17114;52.314;8.910;2023-09-18T04:40:41;14.77;;;5.70;;
30307;SDS011;17114;52.314;8.910;2023-09-18T04:43:09;10.82;;;5.78;;
30307;SDS011;17114;52.314;8.910;2023-09-18T04:45:35;13.30;;;5.65;;
30307;SDS011;17114;52.314;8.910;2023-09-18T04:48:03;6.68;;;4.82;;
30307;SDS011;17114;52.314;8.910;2023-09-18T04:50:32;10.23;;;5.40;;
30307;SDS011;17114;52.314;8.910;2023-09-18T04:53:00;8.07;;;5.28;;
30307;SDS011;17114;52.314;8.910;2023-09-18T04:55:27;7.65;;;4.95;;
30307;SDS011;17114;52.314;8.910;2023-09-18T04:57:53;6.43;;;5.28;;
30307;SDS011;17114;52.314;8.910;2023-09-18T05:00:20;9.43;;;5.65;;
30307;SDS011;17114;52.314;8.910;2023-09-18T05:02:50;7.10;;;4.95;;
30307;SDS011;17114;52.314;8.910;2023-09-18T05:05:17;10.43;;;5.43;;
30307;SDS011;17114;52.314;8.910;2023-09-18T05:07:45;8.48;;;4.90;;
30307;SDS011;17114;52.314;8.910;2023-09-18T05:10:19;8.43;;;4.90;;
30307;SDS011;17114;52.314;8.910;2023-09-18T05:12:48;7.80;;;4.97;;
30307;SDS011;17114;52.314;8.910;2023-09-18T05:15:16;7.65;;;5.30;;
30307;SDS011;17114;52.314;8.910;2023-09-18T05:17:46;7.55;;;5.28;;
30307;SDS011;17114;52.314;8.910;2023-09-18T05:20:20;9.63;;;5.10;;
30307;SDS011;17114;52.314;8.910;2023-09-18T05:22:51;8.63;;;4.70;;
30307;SDS011;17114;52.314;8.910;2023-09-18T05:25:22;6.60;;;4.70;;
30307;SDS011;17114;52.314;8.910;2023-09-18T05:27:54;7.50;;;5.70;;
30307;SDS011;17114;52.314;8.910;2023-09-18T05:30:24;7.60;;;5.18;;
30307;SDS011;17114;52.314;8.910;2023-09-18T05:32:58;7.43;;;5.10;;
30307;SDS011;17114;52.314;8.910;2023-09-18T05:35:32;7.47;;;5.35;;
30307;SDS011;17114;52.314;8.910;2023-09-18T05:38:05;7.72;;;5.32;;
30307;SDS011;17114;52.314;8.910;2023-09-18T05:40:32;10.25;;;5.38;;
30307;SDS011;17114;52.314;8.910;2023-09-18T05:42:59;6.28;;;4.40;;
30307;SDS011;17114;52.314;8.910;2023-09-18T05:45:26;5.75;;;4.72;;
30307;SDS011;17114;52.314;8.910;2023-09-18T05:47:53;8.07;;;5.00;;
30307;SDS011;17114;52.314;8.910;2023-09-18T05:50:28;6.18;;;5.25;;
30307;SDS011;17114;52.314;8.910;2023-09-18T05:52:56;6.88;;;4.75;;
30307;SDS011;17114;52.314;8.910;2023-09-18T05:55:26;6.38;;;4.90;;
30307;SDS011;17114;52.314;8.910;2023-09-18T05:57:54;7.97;;;5.10;;
30307;SDS011;17114;52.314;8.910;2023-09-18T06:00:21;8.38;;;4.63;;
30307;SDS011;17114;52.314;8.910;2023-09-18T06:02:48;10.38;;;5.00;;
30307;SDS011;17114;52.314;8.910;2023-09-18T06:05:17;8.30;;;4.88;;
30307;SDS011;17114;52.314;8.910;2023-09-18T06:07:48;8.00;;;4.78;;
30307;SDS011;17114;52.314;8.910;2023-09-18T06:10:17;7.28;;;4.63;;
30307;SDS011;17114;52.314;8.910;2023-09-18T06:12:44;6.07;;;4.63;;
30307;SDS011;17114;52.314;8.910;2023-09-18T06:15:11;7.63;;;4.78;;
30307;SDS011;17114;52.314;8.910;2023-09-18T06:17:39;4.97;;;4.47;;
30307;SDS011;17114;52.314;8.910;2023-09-18T06:20:08;6.65;;;4.60;;
30307;SDS011;17114;52.314;8.910;2023-09-18T06:22:37;8.52;;;4.65;;
30307;SDS011;17114;52.314;8.910;2023-09-18T06:25:05;9.88;;;5.10;;
30307;SDS011;17114;52.314;8.910;2023-09-18T06:27:34;9.45;;;5.10;;
30307;SDS011;17114;52.314;8.910;2023-09-18T06:30:03;8.80;;;5.10;;
30307;SDS011;17114;52.314;8.910;2023-09-18T06:32:30;7.78;;;5.40;;
30307;SDS011;17114;52.314;8.910;2023-09-18T06:34:58;7.55;;;4.50;;
30307;SDS011;17114;52.314;8.910;2023-09-18T06:37:25;7.45;;;4.40;;
30307;SDS011;17114;52.314;8.910;2023-09-18T06:39:52;6.95;;;4.88;;
30307;SDS011;17114;52.314;8.910;2023-09-18T06:42:18;6.43;;;5.03;;
30307;SDS011;17114;52.314;8.910;2023-09-18T06:44:45;8.70;;;4.72;;
30307;SDS011;17114;52.314;8.910;2023-09-18T06:47:12;7.40;;;5.07;;
30307;SDS011;17114;52.314;8.910;2023-09-18T06:49:41;6.07;;;4.70;;
30307;SDS011;17114;52.314;8.910;2023-09-18T06:52:09;6.70;;;4.50;;
30307;SDS011;17114;52.314;8.910;2023-09-18T06:54:36;6.03;;;4.95;;
30307;SDS011;17114;52.314;8.910;2023-09-18T06:57:03;7.65;;;5.03;;
30307;SDS011;17114;52.314;8.910;2023-09-18T06:59:30;8.18;;;5.63;;
30307;SDS011;17114;52.314;8.910;2023-09-18T07:02:00;9.73;;;5.25;;
30307;SDS011;17114;52.314;8.910;2023-09-18T07:04:28;5.72;;;4.38;;
30307;SDS011;17114;52.314;8.910;2023-09-18T07:06:55;7.63;;;4.80;;
30307;SDS011;17114;52.314;8.910;2023-09-18T07:09:23;9.05;;;5.28;;
30307;SDS011;17114;52.314;8.910;2023-09-18T07:11:51;4.97;;;4.47;;
30307;SDS011;17114;52.314;8.910;2023-09-18T07:14:18;9.88;;;5.10;;
30307;SDS011;17114;52.314;8.910;2023-09-18T07:16:45;7.47;;;4.50;;
30307;SDS011;17114;52.314;8.910;2023-09-18T07:19:12;6.95;;;4.53;;
30307;SDS011;17114;52.314;8.910;2023-09-18T07:21:43;11.02;;;4.50;;
30307;SDS011;17114;52.314;8.910;2023-09-18T07:24:11;8.38;;;4.78;;
30307;SDS011;17114;52.314;8.910;2023-09-18T07:26:44;9.35;;;4.65;;
30307;SDS011;17114;52.314;8.910;2023-09-18T07:29:13;5.75;;;4.40;;
30307;SDS011;17114;52.314;8.910;2023-09-18T07:31:42;5.75;;;4.18;;
30307;SDS011;17114;52.314;8.910;2023-09-18T07:34:09;9.18;;;3.95;;
30307;SDS011;17114;52.314;8.910;2023-09-18T07:36:39;6.63;;;4.30;;
30307;SDS011;17114;52.314;8.910;2023-09-18T07:39:06;7.35;;;4.35;;
30307;SDS011;17114;52.314;8.910;2023-09-18T07:41:33;7.78;;;4.60;;
30307;SDS011;17114;52.314;8.910;2023-09-18T07:44:00;6.68;;;4.38;;
30307;SDS011;17114;52.314;8.910;2023-09-18T07:46:27;8.85;;;4.07;;
30307;SDS011;17114;52.314;8.910;2023-09-18T07:48:54;6.85;;;4.05;;
30307;SDS011;17114;52.314;8.910;2023-09-18T07:51:21;12.40;;;5.00;;
30307;SDS011;17114;52.314;8.910;2023-09-18T07:53:49;9.15;;;3.90;;
30307;SDS011;17114;52.314;8.910;2023-09-18T07:56:16;8.40;;;3.53;;
30307;SDS011;17114;52.314;8.910;2023-09-18T07:58:45;12.07;;;3.47;;
30307;SDS011;17114;52.314;8.910;2023-09-18T08:01:13;11.60;;;3.58;;
30307;SDS011;17114;52.314;8.910;2023-09-18T08:03:42;7.03;;;3.22;;
30307;SDS011;17114;52.314;8.910;2023-09-18T08:06:23;8.18;;;3.47;;
30307;SDS011;17114;52.314;8.910;2023-09-18T08:08:51;9.38;;;4.25;;
30307;SDS011;17114;52.314;8.910;2023-09-18T08:11:20;14.30;;;3.38;;
30307;SDS011;17114;52.314;8.910;2023-09-18T08:13:48;10.60;;;3.85;;
30307;SDS011;17114;52.314;8.910;2023-09-18T08:16:16;6.20;;;3.30;;
30307;SDS011;17114;52.314;8.910;2023-09-18T08:18:45;9.02;;;3.95;;
30307;SDS011;17114;52.314;8.910;2023-09-18T08:21:15;11.98;;;4.00;;
30307;SDS011;17114;52.314;8.910;2023-09-18T08:23:45;9.70;;;3.47;;
30307;SDS011;17114;52.314;8.910;2023-09-18T08:26:16;7.35;;;3.50;;
30307;SDS011;17114;52.314;8.910;2023-09-18T08:28:44;10.10;;;4.03;;
30307;SDS011;17114;52.314;8.910;2023-09-18T08:31:13;8.10;;;3.63;;
30307;SDS011;17114;52.314;8.910;2023-09-18T08:33:45;12.85;;;3.78;;
30307;SDS011;17114;52.314;8.910;2023-09-18T08:36:13;9.85;;;3.50;;
30307;SDS011;17114;52.314;8.910;2023-09-18T08:38:42;6.43;;;3.50;;
30307;SDS011;17114;52.314;8.910;2023-09-18T08:41:11;7.63;;;3.50;;
30307;SDS011;17114;52.314;8.910;2023-09-18T08:43:39;8.45;;;3.50;;
30307;SDS011;17114;52.314;8.910;2023-09-18T08:46:09;8.35;;;3.25;;
30307;SDS011;17114;52.314;8.910;2023-09-18T08:48:36;6.60;;;3.40;;
30307;SDS011;17114;52.314;8.910;2023-09-18T08:51:05;10.63;;;3.30;;
30307;SDS011;17114;52.314;8.910;2023-09-18T08:53:34;9.63;;;3.42;;
30307;SDS011;17114;52.314;8.910;2023-09-18T08:56:02;11.95;;;3.42;;
30307;SDS011;17114;52.314;8.910;2023-09-18T08:58:31;8.30;;;3.10;;
30307;SDS011;17114;52.314;8.910;2023-09-18T09:01:03;11.23;;;2.90;;
30307;SDS011;17114;52.314;8.910;2023-09-18T09:03:32;13.38;;;2.90;;
30307;SDS011;17114;52.314;8.910;2023-09-18T09:06:01;9.48;;;3.08;;
30307;SDS011;17114;52.314;8.910;2023-09-18T09:08:28;9.73;;;2.70;;
30307;SDS011;17114;52.314;8.910;2023-09-18T09:10:56;8.70;;;3.00;;
30307;SDS011;17114;52.314;8.910;2023-09-18T09:13:24;9.57;;;2.63;;
30307;SDS011;17114;52.314;8.910;2023-09-18T09:16:07;8.80;;;2.83;;
30307;SDS011;17114;52.314;8.910;2023-09-18T09:18:47;6.38;;;2.55;;
30307;SDS011;17114;52.314;8.910;2023-09-18T09:21:16;5.93;;;2.40;;
30307;SDS011;17114;52.314;8.910;2023-09-18T09:23:48;6.78;;;2.28;;
30307;SDS011;17114;52.314;8.910;2023-09-18T09:26:20;10.57;;;2.63;;
30307;SDS011;17114;52.314;8.910;2023-09-18T09:28:49;8.10;;;2.88;;
30307;SDS011;17114;52.314;8.910;2023-09-18T09:31:27;7.80;;;2.10;;
30307;SDS011;17114;52.314;8.910;2023-09-18T09:33:57;6.75;;;2.00;;
30307;SDS011;17114;52.314;8.910;2023-09-18T09:36:25;5.53;;;2.30;;
30307;SDS011;17114;52.314;8.910;2023-09-18T09:38:56;8.23;;;2.65;;
30307;SDS011;17114;52.314;8.910;2023-09-18T09:41:25;7.18;;;2.50;;
30307;SDS011;17114;52.314;8.910;2023-09-18T09:43:55;4.68;;;2.17;;
30307;SDS011;17114;52.314;8.910;2023-09-18T09:46:23;7.15;;;2.63;;
30307;SDS011;17114;52.314;8.910;2023-09-18T09:49:02;6.45;;;2.25;;
30307;SDS011;17114;52.314;8.910;2023-09-18T09:51:31;6.75;;;2.60;;
30307;SDS011;17114;52.314;8.910;2023-09-18T09:53:59;7.65;;;2.20;;
30307;SDS011;17114;52.314;8.910;2023-09-18T09:56:46;7.25;;;1.85;;
30307;SDS011;17114;52.314;8.910;2023-09-18T09:59:17;6.82;;;2.22;;
30307;SDS011;17114;52.314;8.910;2023-09-18T10:01:48;7.57;;;2.17;;
30307;SDS011;17114;52.314;8.910;2023-09-18T10:04:18;7.57;;;2.17;;
30307;SDS011;17114;52.314;8.910;2023-09-18T10:06:51;8.25;;;2.63;;
30307;SDS011;17114;52.314;8.910;2023-09-18T10:09:20;8.65;;;2.10;;
30307;SDS011;17114;52.314;8.910;2023-09-18T10:11:51;5.53;;;2.17;;
30307;SDS011;17114;52.314;8.910;2023-09-18T10:14:19;8.70;;;2.50;;
30307;SDS011;17114;52.314;8.910;2023-09-18T10:16:51;6.82;;;2.20;;
30307;SDS011;17114;52.314;8.910;2023-09-18T10:22:37;8.45;;;2.78;;
30307;SDS011;17114;52.314;8.910;2023-09-18T10:25:11;4.85;;;1.90;;
30307;SDS011;17114;52.314;8.910;2023-09-18T10:27:39;9.23;;;2.47;;
30307;SDS011;17114;52.314;8.910;2023-09-18T10:30:08;11.02;;;2.78;;
30307;SDS011;17114;52.314;8.910;2023-09-18T10:32:38;9.70;;;2.45;;
30307;SDS011;17114;52.314;8.910;2023-09-18T10:35:06;6.25;;;2.22;;
30307;SDS011;17114;52.314;8.910;2023-09-18T10:37:38;6.43;;;2.28;;
30307;SDS011;17114;52.314;8.910;2023-09-18T10:40:10;8.07;;;2.08;;
30307;SDS011;17114;52.314;8.910;2023-09-18T10:42:38;9.57;;;2.17;;
30307;SDS011;17114;52.314;8.910;2023-09-18T10:45:10;4.57;;;1.98;;
30307;SDS011;17114;52.314;8.910;2023-09-18T10:47:41;5.95;;;1.92;;
30307;SDS011;17114;52.314;8.910;2023-09-18T10:50:11;5.07;;;2.03;;
30307;SDS011;17114;52.314;8.910;2023-09-18T10:52:48;4.97;;;2.20;;
30307;SDS011;17114;52.314;8.910;2023-09-18T10:55:15;6.97;;;2.38;;
30307;SDS011;17114;52.314;8.910;2023-09-18T10:57:52;7.20;;;2.28;;
30307;SDS011;17114;52.314;8.910;2023-09-18T11:00:21;5.25;;;2.10;;
30307;SDS011;17114;52.314;8.910;2023-09-18T11:02:52;6.82;;;2.05;;
30307;SDS011;17114;52.314;8.910;2023-09-18T11:05:28;7.45;;;2.10;;
30307;SDS011;17114;52.314;8.910;2023-09-18T11:10:58;5.53;;;2.20;;
30307;SDS011;17114;52.314;8.910;2023-09-18T11:13:31;6.43;;;2.05;;
30307;SDS011;17114;52.314;8.910;2023-09-18T11:16:44;7.78;;;2.53;;
30307;SDS011;17114;52.314;8.910;2023-09-18T11:21:30;5.70;;;1.90;;
30307;SDS011;17114;52.314;8.910;2023-09-18T11:24:02;8.50;;;2.40;;
30307;SDS011;17114;52.314;8.910;2023-09-18T11:26:31;12.77;;;2.22;;
30307;SDS011;17114;52.314;8.910;2023-09-18T11:29:03;6.85;;;2.42;;
30307;SDS011;17114;52.314;8.910;2023-09-18T11:31:45;8.50;;;2.40;;
30307;SDS011;17114;52.314;8.910;2023-09-18T11:37:24;10.32;;;2.50;;
30307;SDS011;17114;52.314;8.910;2023-09-18T11:39:51;6.82;;;2.00;;
30307;SDS011;17114;52.314;8.910;2023-09-18T11:42:19;8.48;;;2.22;;
30307;SDS011;17114;52.314;8.910;2023-09-18T11:44:49;8.35;;;2.15;;
30307;SDS011;17114;52.314;8.910;2023-09-18T11:47:17;4.82;;;2.20;;
30307;SDS011;17114;52.314;8.910;2023-09-18T11:49:53;3.97;;;1.90;;
30307;SDS011;17114;52.314;8.910;2023-09-18T11:52:26;6.20;;;1.88;;
30307;SDS011;17114;52.314;8.910;2023-09-18T11:54:56;6.57;;;2.13;;
30307;SDS011;17114;52.314;8.910;2023-09-18T11:57:24;8.88;;;2.10;;
30307;SDS011;17114;52.314;8.910;2023-09-18T11:59:51;7.25;;;2.20;;
30307;SDS011;17114;52.314;8.910;2023-09-18T12:05:16;5.22;;;1.80;;
30307;SDS011;17114;52.314;8.910;2023-09-18T12:07:45;8.20;;;2.60;;
30307;SDS011;17114;52.314;8.910;2023-09-18T12:10:14;5.60;;;2.22;;
30307;SDS011;17114;52.314;8.910;2023-09-18T12:12:47;6.65;;;2.30;;
30307;SDS011;17114;52.314;8.910;2023-09-18T12:15:16;5.65;;;1.90;;
30307;SDS011;17114;52.314;8.910;2023-09-18T12:17:47;5.68;;;2.00;;
30307;SDS011;17114;52.314;8.910;2023-09-18T12:20:17;3.97;;;1.92;;
30307;SDS011;17114;52.314;8.910;2023-09-18T12:22:48;4.88;;;1.70;;
30307;SDS011;17114;52.314;8.910;2023-09-18T12:25:17;5.13;;;1.70;;
30307;SDS011;17114;52.314;8.910;2023-09-18T12:27:53;6.22;;;1.83;;
30307;SDS011;17114;52.314;8.910;2023-09-18T12:30:22;7.75;;;2.10;;
30307;SDS011;17114;52.314;8.910;2023-09-18T12:32:50;3.65;;;2.17;;
30307;SDS011;17114;52.314;8.910;2023-09-18T12:35:18;5.72;;;1.77;;
30307;SDS011;17114;52.314;8.910;2023-09-18T12:37:46;4.43;;;1.80;;
30307;SDS011;17114;52.314;8.910;2023-09-18T12:42:54;4.18;;;2.00;;
30307;SDS011;17114;52.314;8.910;2023-09-18T12:45:26;4.40;;;1.67;;
30307;SDS011;17114;52.314;8.910;2023-09-18T12:47:54;7.28;;;2.00;;
30307;SDS011;17114;52.314;8.910;2023-09-18T12:50:23;5.65;;;1.95;;
30307;SDS011;17114;52.314;8.910;2023-09-18T12:52:51;6.07;;;1.98;;
30307;SDS011;17114;52.314;8.910;2023-09-18T12:55:22;3.75;;;1.60;;
30307;SDS011;17114;52.314;8.910;2023-09-18T12:57:53;6.03;;;1.98;;
30307;SDS011;17114;52.314;8.910;2023-09-18T13:00:22;5.90;;;1.73;;
30307;SDS011;17114;52.314;8.910;2023-09-18T13:02:50;4.60;;;2.13;;
30307;SDS011;17114;52.314;8.910;2023-09-18T13:05:22;6.28;;;1.67;;
30307;SDS011;17114;52.314;8.910;2023-09-18T13:07:53;5.93;;;2.15;;
30307;SDS011;17114;52.314;8.910;2023-09-18T13:10:21;3.20;;;1.90;;
30307;SDS011;17114;52.314;8.910;2023-09-18T13:12:53;7.63;;;2.00;;
30307;SDS011;17114;52.314;8.910;2023-09-18T13:18:00;5.85;;;2.10;;
30307;SDS011;17114;52.314;8.910;2023-09-18T13:20:35;4.72;;;1.75;;
30307;SDS011;17114;52.314;8.910;2023-09-18T13:23:02;7.53;;;2.03;;
30307;SDS011;17114;52.314;8.910;2023-09-18T13:25:33;4.00;;;1.75;;
30307;SDS011;17114;52.314;8.910;2023-09-18T13:28:05;4.45;;;1.92;;
30307;SDS011;17114;52.314;8.910;2023-09-18T13:30:35;4.75;;;1.83;;
30307;SDS011;17114;52.314;8.910;2023-09-18T13:35:39;4.95;;;1.83;;
30307;SDS011;17114;52.314;8.910;2023-09-18T13:38:07;6.03;;;1.80;;
30307;SDS011;17114;52.314;8.910;2023-09-18T13:40:37;6.55;;;2.08;;
30307;SDS011;17114;52.314;8.910;2023-09-18T13:43:05;5.07;;;1.65;;
30307;SDS011;17114;52.314;8.910;2023-09-18T13:45:34;5.40;;;1.60;;
30307;SDS011;17114;52.314;8.910;2023-09-18T13:48:02;4.13;;;1.60;;
30307;SDS011;17114;52.314;8.910;2023-09-18T13:50:34;7.75;;;1.92;;
30307;SDS011;17114;52.314;8.910;2023-09-18T13:53:02;4.57;;;1.75;;
30307;SDS011;17114;52.314;8.910;2023-09-18T13:55:33;6.15;;;1.92;;
30307;SDS011;17114;52.314;8.910;2023-09-18T13:58:00;8.27;;;1.90;;
30307;SDS011;17114;52.314;8.910;2023-09-18T14:00:30;5.28;;;1.50;;
30307;SDS011;17114;52.314;8.910;2023-09-18T14:02:58;4.47;;;1.80;;
30307;SDS011;17114;52.314;8.910;2023-09-18T14:05:26;3.78;;;1.70;;
30307;SDS011;17114;52.314;8.910;2023-09-18T14:07:56;4.72;;;1.83;;
30307;SDS011;17114;52.314;8.910;2023-09-18T14:10:26;5.38;;;1.55;;
30307;SDS011;17114;52.314;8.910;2023-09-18T14:12:55;3.85;;;1.60;;
30307;SDS011;17114;52.314;8.910;2023-09-18T14:15:24;6.07;;;1.80;;
30307;SDS011;17114;52.314;8.910;2023-09-18T14:17:52;2.75;;;1.60;;
30307;SDS011;17114;52.314;8.910;2023-09-18T14:20:20;7.00;;;1.73;;
30307;SDS011;17114;52.314;8.910;2023-09-18T14:22:48;5.93;;;1.60;;
30307;SDS011;17114;52.314;8.910;2023-09-18T14:25:17;5.25;;;1.70;;
30307;SDS011;17114;52.314;8.910;2023-09-18T14:27:47;5.55;;;1.52;;
30307;SDS011;17114;52.314;8.910;2023-09-18T14:30:14;3.88;;;1.67;;
30307;SDS011;17114;52.314;8.910;2023-09-18T14:32:41;5.70;;;2.10;;
30307;SDS011;17114;52.314;8.910;2023-09-18T14:35:09;4.90;;;1.73;;
30307;SDS011;17114;52.314;8.910;2023-09-18T14:37:36;3.97;;;1.70;;
30307;SDS011;17114;52.314;8.910;2023-09-18T14:40:04;9.38;;;1.90;;
30307;SDS011;17114;52.314;8.910;2023-09-18T14:42:33;4.40;;;1.90;;
30307;SDS011;17114;52.314;8.910;2023-09-18T14:45:02;5.40;;;1.98;;
30307;SDS011;17114;52.314;8.910;2023-09-18T14:47:30;4.25;;;1.70;;
30307;SDS011;17114;52.314;8.910;2023-09-18T14:49:57;4.90;;;1.70;;
30307;SDS011;17114;52.314;8.910;2023-09-18T14:52:27;5.25;;;1.50;;
30307;SDS011;17114;52.314;8.910;2023-09-18T14:54:54;6.82;;;1.52;;
30307;SDS011;17114;52.314;8.910;2023-09-18T14:57:21;4.00;;;1.60;;
30307;SDS011;17114;52.314;8.910;2023-09-18T14:59:48;3.80;;;1.60;;
30307;SDS011;17114;52.314;8.910;2023-09-18T15:02:15;5.63;;;1.73;;
30307;SDS011;17114;52.314;8.910;2023-09-18T15:04:44;3.78;;;1.77;;
30307;SDS011;17114;52.314;8.910;2023-09-18T15:07:12;2.63;;;1.50;;
30307;SDS011;17114;52.314;8.910;2023-09-18T15:09:40;9.50;;;1.92;;
30307;SDS011;17114;52.314;8.910;2023-09-18T15:12:07;3.53;;;1.60;;
30307;SDS011;17114;52.314;8.910;2023-09-18T15:14:38;5.60;;;1.90;;
30307;SDS011;17114;52.314;8.910;2023-09-18T15:17:05;5.18;;;2.15;;
30307;SDS011;17114;52.314;8.910;2023-09-18T15:19:34;2.92;;;1.80;;